createdAt,value
2023-03-27T00:01:13.023Z,57.20
2023-03-27T00:03:40.727Z,58.00
2023-03-27T00:06:11.914Z,57.20
2023-03-27T00:08:39.173Z,57.80
2023-03-27T00:11:08.034Z,57.80
2023-03-27T00:13:36.558Z,56.70
2023-03-27T00:16:16.556Z,57.80
2023-03-27T00:18:45.068Z,57.90
2023-03-27T00:21:12.186Z,57.50
2023-03-27T00:23:39.156Z,57.60
2023-03-27T00:26:06.563Z,57.80
2023-03-27T00:28:34.204Z,57.80
2023-03-27T00:31:02.042Z,58.00
2023-03-27T00:33:29.149Z,57.60
2023-03-27T00:35:56.476Z,57.60
2023-03-27T00:38:24.477Z,57.50
2023-03-27T00:40:54.737Z,57.70
2023-03-27T00:43:34.696Z,57.90
2023-03-27T00:46:04.673Z,57.70
2023-03-27T00:48:35.568Z,57.80
2023-03-27T00:51:04.664Z,58.00
2023-03-27T00:53:32.307Z,58.10
2023-03-27T00:56:05.355Z,58.00
2023-03-27T00:58:46.315Z,57.60
2023-03-27T01:01:15.680Z,57.60
2023-03-27T01:03:47.197Z,58.10
2023-03-27T01:06:16.981Z,58.20
2023-03-27T01:08:46.781Z,58.20
2023-03-27T01:11:20.067Z,58.30
2023-03-27T01:14:08.202Z,57.90
2023-03-27T01:16:57.628Z,56.80
2023-03-27T01:20:07.187Z,58.70
2023-03-27T01:22:49.181Z,58.80
2023-03-27T01:25:16.223Z,57.40
2023-03-27T01:27:58.576Z,60.00
2023-03-27T01:30:38.491Z,58.80
2023-03-27T01:33:32.816Z,59.80
2023-03-27T01:36:28.404Z,59.80
2023-03-27T01:39:21.661Z,59.20
2023-03-27T01:41:57.484Z,59.90
2023-03-27T01:44:43.487Z,58.80
2023-03-27T01:47:15.528Z,59.60
2023-03-27T01:50:17.085Z,59.60
2023-03-27T01:52:59.914Z,59.80
2023-03-27T01:55:31.528Z,59.00
2023-03-27T01:58:24.500Z,59.40
2023-03-27T02:00:56.538Z,59.20
2023-03-27T02:03:41.681Z,59.20
2023-03-27T02:06:21.939Z,59.20
2023-03-27T02:08:51.299Z,59.20
2023-03-27T02:11:23.525Z,59.80
2023-03-27T02:14:20.202Z,59.50
2023-03-27T02:16:54.243Z,59.70
2023-03-27T02:19:26.629Z,59.30
2023-03-27T02:21:53.740Z,59.40
2023-03-27T02:24:22.488Z,59.70
2023-03-27T02:26:55.806Z,59.30
2023-03-27T02:29:37.516Z,59.30
2023-03-27T02:32:19.820Z,59.40
2023-03-27T02:34:58.752Z,59.50
2023-03-27T02:37:41.745Z,59.50
2023-03-27T02:41:03.849Z,59.80
2023-03-27T02:43:51.618Z,59.70
2023-03-27T02:46:46.196Z,59.60
2023-03-27T02:49:26.408Z,59.80
2023-03-27T02:52:02.461Z,59.80
2023-03-27T02:54:35.785Z,59.80
2023-03-27T02:57:08.324Z,60.50
2023-03-27T03:00:00.659Z,60.90
2023-03-27T03:02:33.667Z,60.50
2023-03-27T03:05:17.632Z,60.70
2023-03-27T03:07:46.285Z,60.70
2023-03-27T03:10:14.867Z,60.90
2023-03-27T03:12:43.305Z,60.70
2023-03-27T03:15:11.457Z,60.90
2023-03-27T03:17:38.947Z,60.40
2023-03-27T03:20:07.835Z,60.70
2023-03-27T03:22:34.839Z,60.70
2023-03-27T03:25:02.195Z,61.20
2023-03-27T03:27:29.416Z,61.20
2023-03-27T03:30:17.685Z,61.00
2023-03-27T03:33:02.955Z,60.30
2023-03-27T03:35:30.228Z,61.20
2023-03-27T03:37:59.387Z,61.10
2023-03-27T03:40:27.579Z,61.20
2023-03-27T03:42:58.225Z,60.90
2023-03-27T03:45:28.700Z,61.10
2023-03-27T03:47:55.840Z,60.10
2023-03-27T03:50:24.438Z,61.40
2023-03-27T03:52:51.466Z,61.00
2023-03-27T03:55:18.593Z,61.10
2023-03-27T03:57:50.167Z,61.30
2023-03-27T04:00:24.934Z,60.50
2023-03-27T04:02:55.009Z,60.80
2023-03-27T04:05:23.798Z,61.60
2023-03-27T04:07:53.933Z,60.80
2023-03-27T04:10:20.868Z,60.60
2023-03-27T04:12:49.437Z,61.30
2023-03-27T04:15:27.467Z,61.20
2023-03-27T04:17:57.805Z,60.50
2023-03-27T04:20:27.695Z,61.30
2023-03-27T04:22:56.316Z,61.00
2023-03-27T04:25:25.138Z,61.10
2023-03-27T04:27:52.608Z,60.80
2023-03-27T04:30:29.047Z,60.50
2023-03-27T04:33:20.462Z,60.60
2023-03-27T04:36:06.385Z,60.60
2023-03-27T04:38:48.528Z,60.00
2023-03-27T04:41:17.627Z,59.70
2023-03-27T04:43:46.149Z,59.50
2023-03-27T04:46:13.573Z,59.40
2023-03-27T04:48:42.683Z,58.50
2023-03-27T04:51:30.833Z,60.20
2023-03-27T04:53:57.842Z,58.10
2023-03-27T04:56:25.855Z,59.30
2023-03-27T04:58:55.023Z,60.90
2023-03-27T05:01:22.969Z,61.00
2023-03-27T05:04:08.382Z,60.60
2023-03-27T05:06:55.136Z,60.60
2023-03-27T05:09:23.213Z,60.80
2023-03-27T05:11:51.545Z,60.50
2023-03-27T05:14:21.138Z,61.20
2023-03-27T05:16:50.675Z,61.40
2023-03-27T05:19:21.179Z,61.60
2023-03-27T05:21:57.017Z,61.30
2023-03-27T05:24:24.199Z,61.80
2023-03-27T05:26:51.443Z,61.60
2023-03-27T05:29:18.981Z,62.00
2023-03-27T05:31:48.533Z,62.80
2023-03-27T05:34:38.566Z,62.90
2023-03-27T05:37:09.448Z,64.00
2023-03-27T05:39:55.580Z,62.20
2023-03-27T05:42:22.723Z,61.60
2023-03-27T05:44:49.803Z,61.90
2023-03-27T05:47:16.939Z,61.40
2023-03-27T05:49:44.774Z,61.90
2023-03-27T05:52:12.947Z,61.20
2023-03-27T05:54:41.968Z,62.40
2023-03-27T05:57:10.711Z,61.70
2023-03-27T05:59:39.973Z,61.10
2023-03-27T06:02:21.499Z,61.90
2023-03-27T06:04:59.268Z,61.20
2023-03-27T06:07:35.977Z,60.70
2023-03-27T06:10:13.116Z,61.60
2023-03-27T06:12:45.900Z,61.50
2023-03-27T06:15:21.918Z,61.10
2023-03-27T06:18:04.805Z,61.40
2023-03-27T06:20:40.461Z,60.80
2023-03-27T06:23:09.248Z,61.10
2023-03-27T06:25:39.302Z,61.60
2023-03-27T06:28:09.587Z,61.80
2023-03-27T06:30:49.642Z,60.90
2023-03-27T06:33:29.722Z,61.80
2023-03-27T06:36:01.079Z,61.10
2023-03-27T06:38:33.298Z,59.70
2023-03-27T06:41:01.789Z,61.10
2023-03-27T06:43:47.410Z,61.40
2023-03-27T06:46:42.701Z,62.50
2023-03-27T06:49:16.050Z,62.90
2023-03-27T06:51:43.147Z,63.20
2023-03-27T06:54:13.487Z,63.90
2023-03-27T06:56:45.930Z,64.50
2023-03-27T06:59:18.304Z,63.30
2023-03-27T07:01:48.667Z,64.50
2023-03-27T07:04:34.534Z,63.30
2023-03-27T07:07:08.224Z,63.80
2023-03-27T07:09:40.065Z,64.50
2023-03-27T07:12:09.208Z,63.70
2023-03-27T07:14:38.101Z,62.60
2023-03-27T07:17:05.617Z,61.60
2023-03-27T07:20:07.242Z,61.20
2023-03-27T07:22:34.552Z,62.40
2023-03-27T07:25:09.147Z,62.10
2023-03-27T07:27:41.808Z,61.00
2023-03-27T07:30:12.214Z,60.00
2023-03-27T07:32:43.029Z,60.30
2023-03-27T07:35:11.345Z,61.70
2023-03-27T07:37:57.697Z,60.70
2023-03-27T07:40:46.632Z,59.20
2023-03-27T07:43:28.538Z,60.40
2023-03-27T07:45:56.409Z,60.30
2023-03-27T07:48:26.104Z,58.10
2023-03-27T07:53:34.775Z,59.30
2023-03-27T07:56:23.511Z,59.60
2023-03-27T07:59:06.190Z,60.30
2023-03-27T08:01:34.178Z,58.50
2023-03-27T08:04:01.863Z,59.30
2023-03-27T08:06:29.776Z,59.50
2023-03-27T08:08:58.687Z,57.40
2023-03-27T08:11:31.030Z,60.50
2023-03-27T08:13:59.241Z,58.80
2023-03-27T08:16:29.785Z,58.60
2023-03-27T08:19:00.147Z,59.60
2023-03-27T08:21:28.399Z,59.20
2023-03-27T08:23:57.803Z,59.20
2023-03-27T08:26:34.379Z,55.40
2023-03-27T08:29:05.161Z,58.70
2023-03-27T08:31:34.335Z,58.50
2023-03-27T08:34:04.125Z,57.60
2023-03-27T08:36:50.452Z,56.50
2023-03-27T08:39:17.742Z,58.30
2023-03-27T08:42:00.431Z,59.10
2023-03-27T08:44:33.635Z,56.80
2023-03-27T08:47:24.922Z,56.40
2023-03-27T08:50:05.802Z,57.00
2023-03-27T08:52:46.009Z,56.70
2023-03-27T08:55:28.941Z,56.30
2023-03-27T08:58:05.057Z,57.30
2023-03-27T09:00:39.769Z,53.90
2023-03-27T09:03:35.820Z,56.50
2023-03-27T09:06:12.551Z,56.10
2023-03-27T09:09:04.818Z,54.30
2023-03-27T09:11:34.920Z,56.00
2023-03-27T09:14:15.612Z,54.70
2023-03-27T09:16:49.440Z,55.60
2023-03-27T09:19:36.035Z,55.20
2023-03-27T09:22:20.407Z,54.10
2023-03-27T09:25:14.959Z,54.30
2023-03-27T09:28:01.642Z,56.50
2023-03-27T09:30:39.513Z,54.90
2023-03-27T09:33:14.924Z,55.40
2023-03-27T09:35:45.802Z,52.30
2023-03-27T09:38:34.908Z,56.20
2023-03-27T09:41:13.495Z,52.60
2023-03-27T09:43:51.293Z,52.70
2023-03-27T09:46:21.487Z,51.20
2023-03-27T09:49:19.900Z,51.20
2023-03-27T09:51:55.377Z,52.10
2023-03-27T09:54:53.137Z,53.90
2023-03-27T09:57:32.291Z,55.80
2023-03-27T10:00:15.685Z,50.80
2023-03-27T10:02:47.635Z,52.30
2023-03-27T10:05:22.154Z,53.10
2023-03-27T10:07:54.742Z,51.80
2023-03-27T10:10:45.771Z,51.80
2023-03-27T10:13:48.978Z,51.00
2023-03-27T10:16:21.969Z,52.00
2023-03-27T10:19:00.442Z,52.60
2023-03-27T10:21:42.761Z,50.70
2023-03-27T10:24:17.832Z,51.00
2023-03-27T10:27:09.253Z,52.60
2023-03-27T10:29:41.369Z,51.70
2023-03-27T10:32:13.102Z,53.40
2023-03-27T10:34:58.136Z,50.90
2023-03-27T10:37:41.108Z,51.60
2023-03-27T10:40:51.665Z,51.90
2023-03-27T10:43:41.243Z,53.30
2023-03-27T10:46:12.697Z,54.70
2023-03-27T10:49:07.046Z,54.40
2023-03-27T10:51:57.796Z,52.60
2023-03-27T10:54:37.769Z,51.20
2023-03-27T10:57:12.792Z,53.60
2023-03-27T10:59:55.031Z,53.80
2023-03-27T11:02:47.841Z,55.40
2023-03-27T11:05:23.933Z,54.90
2023-03-27T11:07:58.328Z,56.70
2023-03-27T11:10:52.514Z,56.60
2023-03-27T11:13:37.053Z,55.70
2023-03-27T11:16:20.943Z,55.90
2023-03-27T11:19:12.524Z,55.30
2023-03-27T11:22:29.727Z,55.20
2023-03-27T11:25:14.277Z,55.40
2023-03-27T11:27:53.973Z,53.00
2023-03-27T11:30:31.757Z,53.70
2023-03-27T11:33:09.822Z,55.60
2023-03-27T11:35:43.759Z,58.00
2023-03-27T11:38:40.465Z,57.20
2023-03-27T11:41:15.462Z,56.80
2023-03-27T11:43:43.740Z,57.20
2023-03-27T11:46:49.140Z,57.30
2023-03-27T11:49:44.215Z,57.70
2023-03-27T11:52:47.895Z,57.30
2023-03-27T11:55:52.775Z,55.90
2023-03-27T11:58:54.333Z,55.50
2023-03-27T12:01:43.374Z,55.80
2023-03-27T12:04:22.405Z,56.90
2023-03-27T12:07:35.320Z,57.20
2023-03-27T12:10:29.149Z,56.10
2023-03-27T12:14:02.008Z,54.80
2023-03-27T12:16:45.108Z,56.50
2023-03-27T12:19:29.854Z,54.90
2023-03-27T12:22:30.078Z,53.10
2023-03-27T12:25:27.349Z,53.50
2023-03-27T12:28:32.712Z,53.70
2023-03-27T12:31:19.279Z,53.40
2023-03-27T12:33:52.623Z,54.00
2023-03-27T12:36:24.503Z,54.60
2023-03-27T12:38:54.532Z,53.20
2023-03-27T12:41:31.127Z,53.80
2023-03-27T12:44:13.066Z,53.50
2023-03-27T12:47:07.113Z,55.30
2023-03-27T12:49:47.938Z,56.90
2023-03-27T12:52:21.420Z,50.50
2023-03-27T12:55:13.687Z,51.00
2023-03-27T12:58:01.034Z,49.60
2023-03-27T13:01:00.327Z,49.80
2023-03-27T13:04:08.412Z,50.20
2023-03-27T13:06:51.310Z,51.40
2023-03-27T13:09:24.289Z,51.40
2023-03-27T13:12:11.435Z,52.00
2023-03-27T13:15:03.166Z,51.20
2023-03-27T13:17:51.712Z,50.60
2023-03-27T13:20:27.265Z,54.40
2023-03-27T13:23:01.268Z,49.30
2023-03-27T13:25:32.492Z,50.20
2023-03-27T13:28:17.874Z,48.30
2023-03-27T13:31:00.991Z,51.80
2023-03-27T13:34:27.653Z,51.90
2023-03-27T13:37:11.483Z,53.90
2023-03-27T13:40:07.797Z,55.90
2023-03-27T13:42:43.127Z,57.30
2023-03-27T13:45:35.832Z,57.40
2023-03-27T13:48:59.186Z,58.00
2023-03-27T13:51:50.416Z,59.10
2023-03-27T13:54:43.462Z,59.20
2023-03-27T13:57:23.395Z,58.40
2023-03-27T14:01:02.815Z,58.20
2023-03-27T14:03:49.975Z,58.00
2023-03-27T14:06:44.503Z,57.70
2023-03-27T14:09:41.370Z,57.20
2023-03-27T14:12:49.655Z,57.00
2023-03-27T14:15:41.748Z,57.40
2023-03-27T14:18:58.943Z,57.90
2023-03-27T14:21:38.355Z,54.50
2023-03-27T14:24:24.164Z,59.10
2023-03-27T14:26:57.649Z,57.20
2023-03-27T14:29:24.889Z,55.20
2023-03-27T14:31:52.012Z,56.30
2023-03-27T14:34:47.201Z,56.60
2023-03-27T14:37:39.242Z,55.80
2023-03-27T14:40:28.339Z,56.60
2023-03-27T14:43:00.768Z,57.20
2023-03-27T14:45:34.572Z,57.10
2023-03-27T14:48:09.921Z,57.40
2023-03-27T14:50:46.419Z,56.30
2023-03-27T14:53:19.832Z,55.50
2023-03-27T14:56:23.268Z,57.80
2023-03-27T14:59:01.887Z,55.10
2023-03-27T15:01:41.266Z,55.70
2023-03-27T15:04:11.305Z,54.80
2023-03-27T15:06:41.797Z,54.60
2023-03-27T15:09:19.287Z,54.50
2023-03-27T15:12:04.915Z,55.00
2023-03-27T15:14:33.439Z,54.90
2023-03-27T15:17:21.672Z,54.80
2023-03-27T15:20:14.965Z,52.70
2023-03-27T15:22:48.437Z,53.90
2023-03-27T15:25:17.649Z,53.20
2023-03-27T15:27:53.104Z,54.20
2023-03-27T15:30:51.352Z,54.00
2023-03-27T15:33:26.490Z,54.30
2023-03-27T15:35:56.413Z,56.20
2023-03-27T15:38:29.173Z,55.90
2023-03-27T15:41:16.065Z,54.50
2023-03-27T15:43:44.176Z,55.80
2023-03-27T15:46:16.398Z,56.00
2023-03-27T15:48:45.973Z,55.70
2023-03-27T15:51:29.319Z,54.20
2023-03-27T15:53:57.340Z,53.40
2023-03-27T15:56:41.541Z,51.90
2023-03-27T15:59:13.057Z,52.80
2023-03-27T16:01:43.931Z,55.50
2023-03-27T16:04:18.953Z,54.30
2023-03-27T16:06:51.439Z,53.40
2023-03-27T16:09:22.682Z,54.00
2023-03-27T16:11:51.072Z,54.30
2023-03-27T16:14:21.891Z,53.00
2023-03-27T16:16:53.920Z,52.80
2023-03-27T16:19:21.399Z,53.80
2023-03-27T16:21:56.182Z,53.80
2023-03-27T16:24:23.392Z,53.50
2023-03-27T16:26:52.636Z,53.00
2023-03-27T16:29:21.538Z,53.20
2023-03-27T16:31:48.493Z,52.80
2023-03-27T16:34:21.964Z,52.30
2023-03-27T16:36:50.741Z,54.60
2023-03-27T16:39:17.819Z,52.80
2023-03-27T16:41:45.385Z,53.90
2023-03-27T16:44:12.344Z,53.00
2023-03-27T16:46:39.348Z,53.10
2023-03-27T16:49:06.805Z,53.70
2023-03-27T16:51:33.981Z,55.00
2023-03-27T16:54:01.427Z,53.30
2023-03-27T16:56:28.486Z,54.10
2023-03-27T16:58:55.689Z,52.70
2023-03-27T17:01:24.380Z,52.90
2023-03-27T17:03:51.384Z,54.20
2023-03-27T17:06:19.355Z,48.50
2023-03-27T17:08:46.366Z,51.70
2023-03-27T17:11:13.970Z,55.10
2023-03-27T17:13:43.448Z,57.00
2023-03-27T17:16:11.260Z,59.30
2023-03-27T17:18:38.205Z,66.60
2023-03-27T17:21:05.445Z,64.20
2023-03-27T17:23:32.936Z,62.50
2023-03-27T17:26:01.612Z,61.00
2023-03-27T17:28:29.199Z,59.00
2023-03-27T17:31:04.579Z,59.00
2023-03-27T17:33:33.472Z,58.50
2023-03-27T17:36:00.753Z,57.40
2023-03-27T17:38:28.387Z,57.60
2023-03-27T17:40:55.310Z,57.60
2023-03-27T17:43:22.238Z,56.50
2023-03-27T17:45:50.130Z,55.50
2023-03-27T17:48:19.792Z,56.20
2023-03-27T17:51:01.101Z,55.10
2023-03-27T17:53:36.240Z,56.30
2023-03-27T17:56:03.329Z,56.20
2023-03-27T17:58:31.324Z,56.10
2023-03-27T18:00:58.275Z,55.70
2023-03-27T18:03:25.432Z,55.80
2023-03-27T18:05:52.764Z,56.00
2023-03-27T18:08:20.061Z,55.90
2023-03-27T18:10:50.502Z,55.70
2023-03-27T18:13:18.807Z,55.40
2023-03-27T18:15:46.409Z,54.50
2023-03-27T18:18:13.426Z,54.30
2023-03-27T18:20:40.916Z,55.60
2023-03-27T18:23:07.931Z,54.60
2023-03-27T18:25:35.019Z,54.70
2023-03-27T18:28:02.017Z,55.40
2023-03-27T18:30:30.982Z,55.20
2023-03-27T18:32:59.182Z,55.20
2023-03-27T18:35:26.205Z,54.40
2023-03-27T18:37:53.161Z,54.80
2023-03-27T18:40:20.288Z,55.00
2023-03-27T18:42:47.307Z,54.90
2023-03-27T18:45:17.282Z,55.60
2023-03-27T18:47:44.931Z,55.30
2023-03-27T18:50:13.748Z,55.50
2023-03-27T18:52:41.175Z,56.00
2023-03-27T18:55:09.712Z,55.30
2023-03-27T18:57:37.963Z,55.30
2023-03-27T19:00:08.224Z,55.10
2023-03-27T19:02:36.688Z,55.70
2023-03-27T19:05:04.174Z,55.80
2023-03-27T19:07:31.877Z,55.90
2023-03-27T19:09:59.085Z,56.10
2023-03-27T19:12:36.979Z,56.30
2023-03-27T19:15:22.530Z,56.50
2023-03-27T19:17:58.894Z,56.50
2023-03-27T19:20:46.592Z,56.30
2023-03-27T19:23:24.654Z,56.50
2023-03-27T19:25:52.157Z,56.50
2023-03-27T19:28:19.295Z,55.90
2023-03-27T19:30:47.864Z,56.50
2023-03-27T19:33:14.939Z,56.60
2023-03-27T19:35:41.921Z,56.70
2023-03-27T19:38:09.220Z,57.30
2023-03-27T19:40:36.162Z,57.60
2023-03-27T19:43:04.326Z,57.70
2023-03-27T19:45:31.300Z,57.60
2023-03-27T19:47:58.355Z,58.20
2023-03-27T19:50:25.349Z,57.50
2023-03-27T19:53:19.696Z,58.00
2023-03-27T19:55:46.750Z,57.80
2023-03-27T19:58:13.793Z,58.30
2023-03-27T20:00:40.786Z,58.00
2023-03-27T20:03:10.395Z,57.50
2023-03-27T20:05:41.804Z,58.30
2023-03-27T20:08:08.781Z,58.40
2023-03-27T20:10:35.706Z,58.00
2023-03-27T20:13:02.677Z,59.20
2023-03-27T20:15:29.898Z,58.20
2023-03-27T20:17:56.862Z,58.60
2023-03-27T20:20:23.994Z,58.70
2023-03-27T20:22:57.646Z,59.00
2023-03-27T20:25:25.393Z,59.10
2023-03-27T20:27:52.320Z,58.80
2023-03-27T20:30:19.423Z,58.80
2023-03-27T20:32:49.112Z,58.50
2023-03-27T20:35:23.760Z,57.90
2023-03-27T20:37:56.398Z,58.00
2023-03-27T20:40:26.154Z,57.90
2023-03-27T20:43:03.033Z,59.00
2023-03-27T20:45:31.125Z,58.60
2023-03-27T20:48:04.134Z,58.80
2023-03-27T20:50:35.857Z,57.80
2023-03-27T20:53:04.399Z,58.80
2023-03-27T20:55:34.636Z,58.60
2023-03-27T20:58:03.140Z,59.00
2023-03-27T21:00:30.049Z,58.10
2023-03-27T21:02:57.272Z,58.10
2023-03-27T21:05:24.254Z,58.90
2023-03-27T21:07:52.611Z,58.90
2023-03-27T21:10:21.331Z,59.00
2023-03-27T21:12:48.573Z,58.60
2023-03-27T21:15:15.747Z,59.60
2023-03-27T21:17:42.812Z,59.90
2023-03-27T21:20:10.393Z,59.60
2023-03-27T21:22:37.564Z,59.40
2023-03-27T21:25:04.821Z,59.90
2023-03-27T21:27:31.856Z,59.60
2023-03-27T21:29:59.431Z,59.50
2023-03-27T21:32:26.557Z,59.90
2023-03-27T21:34:53.579Z,59.80
2023-03-27T21:37:20.795Z,58.60
2023-03-27T21:39:47.732Z,60.00
2023-03-27T21:42:16.498Z,59.70
2023-03-27T21:44:46.086Z,60.20
2023-03-27T21:47:15.508Z,59.60
2023-03-27T21:49:42.502Z,60.20
2023-03-27T21:52:09.924Z,60.00
2023-03-27T21:54:36.906Z,59.80
2023-03-27T21:57:04.645Z,60.30
2023-03-27T21:59:31.656Z,60.50
2023-03-27T22:01:58.722Z,60.10
2023-03-27T22:04:26.824Z,60.00
2023-03-27T22:06:53.846Z,59.00
2023-03-27T22:09:21.084Z,60.10
2023-03-27T22:11:48.169Z,59.70
2023-03-27T22:14:15.646Z,60.30
2023-03-27T22:16:43.453Z,59.40
2023-03-27T22:19:11.409Z,60.40
2023-03-27T22:21:38.426Z,60.70
2023-03-27T22:24:06.174Z,60.40
2023-03-27T22:26:36.436Z,60.40
2023-03-27T22:29:04.631Z,60.10
2023-03-27T22:31:32.034Z,60.70
2023-03-27T22:33:59.202Z,59.90
2023-03-27T22:36:26.264Z,60.40
2023-03-27T22:38:53.210Z,60.90
2023-03-27T22:41:20.333Z,60.80
2023-03-27T22:43:49.484Z,60.30
2023-03-27T22:46:20.347Z,60.90
2023-03-27T22:48:47.703Z,61.00
2023-03-27T22:51:14.814Z,61.40
2023-03-27T22:53:41.810Z,59.90
2023-03-27T22:56:09.182Z,61.00
2023-03-27T22:58:36.196Z,62.20
2023-03-27T23:01:04.520Z,61.50
2023-03-27T23:03:32.023Z,61.30
2023-03-27T23:05:59.388Z,61.10
2023-03-27T23:08:28.289Z,60.10
2023-03-27T23:11:05.808Z,61.30
2023-03-27T23:13:34.750Z,61.40
2023-03-27T23:16:02.132Z,62.20
2023-03-27T23:18:29.336Z,61.10
2023-03-27T23:21:17.736Z,61.50
2023-03-27T23:23:45.437Z,61.60
2023-03-27T23:26:12.882Z,61.50
2023-03-27T23:28:42.061Z,61.50
2023-03-27T23:31:16.429Z,61.50
2023-03-27T23:33:46.065Z,61.20
2023-03-27T23:36:16.381Z,61.60
2023-03-27T23:38:43.838Z,61.60
2023-03-27T23:41:12.747Z,61.40
2023-03-27T23:43:39.734Z,61.90
2023-03-27T23:46:10.945Z,62.20
2023-03-27T23:48:40.670Z,61.70
2023-03-27T23:51:08.167Z,61.50
2023-03-27T23:53:35.577Z,61.80
2023-03-27T23:56:02.888Z,61.70
2023-03-27T23:58:33.696Z,62.10
